createdAt,value
2024-05-09T00:00:15.692Z,64.71
2024-05-09T00:01:23.637Z,64.93
2024-05-09T00:02:26.029Z,64.78
2024-05-09T00:03:30.805Z,64.53
2024-05-09T00:04:32.873Z,64.39
2024-05-09T00:05:35.642Z,64.09
2024-05-09T00:06:40.665Z,64.25
2024-05-09T00:07:42.734Z,64.14
2024-05-09T00:08:47.450Z,64.08
2024-05-09T00:09:49.491Z,64.16
2024-05-09T00:10:54.337Z,63.89
2024-05-09T00:11:56.734Z,64.01
2024-05-09T00:13:01.520Z,63.96
2024-05-09T00:14:06.221Z,63.90
2024-05-09T00:15:11.595Z,63.88
2024-05-09T00:16:13.742Z,64.06
2024-05-09T00:17:18.683Z,63.71
2024-05-09T00:18:21.132Z,63.88
2024-05-09T00:19:26.172Z,63.84
2024-05-09T00:20:36.487Z,63.92
2024-05-09T00:21:45.641Z,63.93
2024-05-09T00:22:47.756Z,64.12
2024-05-09T00:23:49.939Z,64.07
2024-05-09T00:24:54.738Z,64.12
2024-05-09T00:25:56.957Z,63.91
2024-05-09T00:27:01.618Z,64.16
2024-05-09T00:28:04.198Z,64.27
2024-05-09T00:29:11.484Z,64.12
2024-05-09T00:30:20.999Z,64.35
2024-05-09T00:31:29.349Z,64.37
2024-05-09T00:32:31.689Z,64.35
2024-05-09T00:33:36.628Z,64.06
2024-05-09T00:34:38.946Z,64.05
2024-05-09T00:35:44.088Z,64.13
2024-05-09T00:36:46.333Z,64.21
2024-05-09T00:37:51.033Z,64.19
2024-05-09T00:38:53.117Z,64.25
2024-05-09T00:39:58.858Z,64.35
2024-05-09T00:41:01.006Z,64.63
2024-05-09T00:42:06.385Z,64.78
2024-05-09T00:43:08.976Z,64.59
2024-05-09T00:44:16.478Z,64.28
2024-05-09T00:45:18.711Z,64.92
2024-05-09T00:46:23.699Z,64.46
2024-05-09T00:47:25.981Z,64.77
2024-05-09T00:48:31.214Z,64.91
2024-05-09T00:49:34.045Z,64.82
2024-05-09T00:50:41.768Z,64.88
2024-05-09T00:51:44.239Z,64.78
2024-05-09T00:52:49.503Z,64.50
2024-05-09T00:53:51.912Z,64.48
2024-05-09T00:54:56.712Z,64.45
2024-05-09T00:55:59.147Z,64.46
2024-05-09T00:57:02.605Z,64.78
2024-05-09T00:58:08.120Z,64.94
2024-05-09T00:59:10.257Z,65.27
2024-05-09T01:00:26.534Z,65.09
2024-05-09T01:01:34.497Z,65.53
2024-05-09T01:02:39.335Z,65.20
2024-05-09T01:03:41.775Z,65.21
2024-05-09T01:04:46.982Z,65.17
2024-05-09T01:05:49.246Z,65.27
2024-05-09T01:06:53.975Z,64.96
2024-05-09T01:07:56.092Z,64.77
2024-05-09T01:09:00.769Z,65.16
2024-05-09T01:10:03.246Z,65.03
2024-05-09T01:11:09.270Z,64.43
2024-05-09T01:12:11.713Z,64.96
2024-05-09T01:13:13.995Z,64.76
2024-05-09T01:14:18.814Z,64.90
2024-05-09T01:15:23.522Z,64.71
2024-05-09T01:16:28.499Z,64.88
2024-05-09T01:17:31.006Z,65.20
2024-05-09T01:18:35.952Z,65.26
2024-05-09T01:19:38.239Z,65.27
2024-05-09T01:20:44.976Z,65.11
2024-05-09T01:21:47.641Z,65.31
2024-05-09T01:22:53.992Z,65.62
2024-05-09T01:23:58.816Z,65.86
2024-05-09T01:25:03.474Z,66.19
2024-05-09T01:26:05.680Z,66.25
2024-05-09T01:27:10.357Z,66.33
2024-05-09T01:28:12.455Z,66.14
2024-05-09T01:29:17.193Z,65.97
2024-05-09T01:30:24.357Z,65.76
2024-05-09T01:31:32.529Z,65.95
2024-05-09T01:32:34.788Z,66.23
2024-05-09T01:33:39.903Z,65.83
2024-05-09T01:34:42.214Z,66.02
2024-05-09T01:35:47.007Z,66.10
2024-05-09T01:36:49.280Z,66.03
2024-05-09T01:37:53.991Z,65.63
2024-05-09T01:38:58.775Z,65.86
2024-05-09T01:40:03.746Z,66.22
2024-05-09T01:41:06.079Z,66.25
2024-05-09T01:42:08.158Z,66.68
2024-05-09T01:43:12.930Z,66.43
2024-05-09T01:44:15.210Z,66.33
2024-05-09T01:45:19.887Z,66.45
2024-05-09T01:46:22.001Z,66.93
2024-05-09T01:47:26.954Z,66.64
2024-05-09T01:48:29.261Z,66.54
2024-05-09T01:49:38.307Z,65.94
2024-05-09T01:50:42.695Z,66.40
2024-05-09T01:51:48.164Z,66.64
2024-05-09T01:52:50.264Z,66.80
2024-05-09T01:53:56.873Z,66.93
2024-05-09T01:55:05.604Z,66.87
2024-05-09T01:56:12.311Z,67.08
2024-05-09T01:57:14.419Z,66.78
2024-05-09T01:58:19.129Z,66.42
2024-05-09T01:59:21.304Z,66.19
2024-05-09T02:00:36.830Z,66.57
2024-05-09T02:01:56.468Z,66.64
2024-05-09T02:03:00.019Z,66.77
2024-05-09T02:04:04.922Z,66.55
2024-05-09T02:05:07.519Z,66.54
2024-05-09T02:06:12.468Z,66.29
2024-05-09T02:07:14.621Z,66.44
2024-05-09T02:08:20.647Z,66.32
2024-05-09T02:09:23.095Z,66.26
2024-05-09T02:10:32.917Z,66.23
2024-05-09T02:11:41.128Z,66.50
2024-05-09T02:12:46.094Z,66.50
2024-05-09T02:13:48.218Z,66.38
2024-05-09T02:14:54.265Z,66.17
2024-05-09T02:15:56.613Z,66.64
2024-05-09T02:17:01.458Z,66.06
2024-05-09T02:18:04.195Z,65.45
2024-05-09T02:19:09.117Z,65.71
2024-05-09T02:20:18.778Z,65.61
2024-05-09T02:21:34.186Z,66.40
2024-05-09T02:22:36.427Z,66.37
2024-05-09T02:23:41.168Z,66.20
2024-05-09T02:24:43.387Z,65.94
2024-05-09T02:25:50.781Z,65.84
2024-05-09T02:26:52.923Z,66.08
2024-05-09T02:27:57.719Z,66.27
2024-05-09T02:29:00.012Z,66.45
2024-05-09T02:30:09.908Z,66.37
2024-05-09T02:31:17.384Z,66.67
2024-05-09T02:32:22.256Z,66.47
2024-05-09T02:33:24.614Z,66.51
2024-05-09T02:34:26.979Z,66.32
2024-05-09T02:35:32.002Z,65.64
2024-05-09T02:36:34.023Z,65.61
2024-05-09T02:37:36.070Z,65.65
2024-05-09T02:38:39.099Z,65.74
2024-05-09T02:39:43.863Z,65.63
2024-05-09T02:40:48.474Z,65.63
2024-05-09T02:41:50.656Z,65.87
2024-05-09T02:42:52.699Z,65.82
2024-05-09T02:43:54.922Z,66.17
2024-05-09T02:44:59.748Z,66.03
2024-05-09T02:46:01.810Z,66.16
2024-05-09T02:47:04.136Z,66.06
2024-05-09T02:48:07.577Z,65.87
2024-05-09T02:49:12.641Z,65.89
2024-05-09T02:50:19.415Z,66.25
2024-05-09T02:51:28.298Z,66.83
2024-05-09T02:52:32.967Z,66.49
2024-05-09T02:53:35.201Z,66.43
2024-05-09T02:54:37.504Z,66.35
2024-05-09T02:55:40.082Z,66.19
2024-05-09T02:56:47.259Z,66.13
2024-05-09T02:57:49.345Z,66.12
2024-05-09T02:58:51.558Z,66.56
2024-05-09T02:59:56.325Z,66.65
2024-05-09T03:00:58.552Z,66.79
2024-05-09T03:02:00.896Z,67.08
2024-05-09T03:03:05.933Z,67.12
2024-05-09T03:04:08.318Z,66.67
2024-05-09T03:05:11.153Z,66.44
2024-05-09T03:06:15.911Z,66.57
2024-05-09T03:07:20.219Z,66.67
2024-05-09T03:08:22.495Z,66.21
2024-05-09T03:09:28.050Z,66.49
2024-05-09T03:10:35.675Z,66.84
2024-05-09T03:11:40.607Z,67.50
2024-05-09T03:12:45.570Z,67.16
2024-05-09T03:13:50.569Z,66.52
2024-05-09T03:14:52.678Z,66.67
2024-05-09T03:15:54.887Z,67.23
2024-05-09T03:16:57.103Z,67.32
2024-05-09T03:18:03.039Z,67.36
2024-05-09T03:19:05.429Z,66.58
2024-05-09T03:20:17.279Z,66.76
2024-05-09T03:21:28.311Z,67.35
2024-05-09T03:22:30.428Z,67.24
2024-05-09T03:23:32.626Z,67.46
2024-05-09T03:24:34.673Z,67.81
2024-05-09T03:25:39.413Z,67.29
2024-05-09T03:26:41.486Z,67.31
2024-05-09T03:27:46.309Z,67.31
2024-05-09T03:28:48.408Z,67.80
2024-05-09T03:29:53.250Z,67.39
2024-05-09T03:30:55.215Z,67.02
2024-05-09T03:31:57.367Z,67.05
2024-05-09T03:32:59.951Z,67.34
2024-05-09T03:34:04.953Z,67.70
2024-05-09T03:35:07.813Z,67.54
2024-05-09T03:36:11.264Z,67.60
2024-05-09T03:37:16.432Z,67.75
2024-05-09T03:38:18.707Z,67.47
2024-05-09T03:39:20.868Z,67.13
2024-05-09T03:40:28.970Z,67.18
2024-05-09T03:41:32.947Z,67.91
2024-05-09T03:42:40.778Z,67.93
2024-05-09T03:43:49.465Z,67.94
2024-05-09T03:44:52.602Z,66.89
2024-05-09T03:45:54.708Z,66.80
2024-05-09T03:46:59.458Z,67.14
2024-05-09T03:48:01.820Z,67.09
2024-05-09T03:49:04.100Z,67.20
2024-05-09T03:50:14.972Z,67.66
2024-05-09T03:51:22.813Z,67.62
2024-05-09T03:52:24.957Z,67.89
2024-05-09T03:53:27.235Z,69.19
2024-05-09T03:54:31.838Z,69.47
2024-05-09T03:55:33.937Z,68.84
2024-05-09T03:56:36.076Z,67.79
2024-05-09T03:57:41.061Z,67.98
2024-05-09T03:58:43.208Z,68.51
2024-05-09T03:59:47.889Z,68.31
2024-05-09T04:00:50.094Z,68.22
2024-05-09T04:01:54.937Z,68.20
2024-05-09T04:02:57.185Z,68.18
2024-05-09T04:03:59.433Z,68.34
2024-05-09T04:05:01.668Z,68.33
2024-05-09T04:06:07.954Z,68.29
2024-05-09T04:07:10.080Z,68.16
2024-05-09T04:08:12.409Z,68.42
2024-05-09T04:09:17.525Z,68.48
2024-05-09T04:10:27.716Z,68.68
2024-05-09T04:11:35.004Z,69.06
2024-05-09T04:12:40.037Z,68.82
2024-05-09T04:13:42.215Z,68.93
2024-05-09T04:14:44.401Z,68.68
2024-05-09T04:15:49.092Z,68.05
2024-05-09T04:16:53.813Z,68.24
2024-05-09T04:17:56.289Z,68.52
2024-05-09T04:18:58.805Z,68.19
2024-05-09T04:20:03.619Z,68.11
2024-05-09T04:21:06.619Z,67.97
2024-05-09T04:22:08.829Z,68.12
2024-05-09T04:23:15.764Z,68.09
2024-05-09T04:24:17.991Z,67.26
2024-05-09T04:25:20.187Z,66.71
2024-05-09T04:26:22.477Z,66.06
2024-05-09T04:27:27.183Z,65.28
2024-05-09T04:28:29.564Z,65.16
2024-05-09T04:29:32.282Z,64.75
2024-05-09T04:30:38.915Z,64.61
2024-05-09T04:31:48.476Z,64.44
2024-05-09T04:32:51.069Z,64.50
2024-05-09T04:33:53.515Z,64.12
2024-05-09T04:34:58.502Z,64.37
2024-05-09T04:36:00.642Z,64.38
2024-05-09T04:37:03.048Z,64.55
2024-05-09T04:38:05.535Z,64.68
2024-05-09T04:39:10.596Z,64.79
2024-05-09T04:40:24.032Z,64.86
2024-05-09T04:41:33.309Z,65.10
2024-05-09T04:42:38.022Z,64.94
2024-05-09T04:43:40.357Z,64.88
2024-05-09T04:44:42.505Z,65.00
2024-05-09T04:45:44.704Z,65.22
2024-05-09T04:46:49.823Z,65.32
2024-05-09T04:47:55.001Z,65.16
2024-05-09T04:48:57.523Z,65.43
2024-05-09T04:49:59.951Z,65.65
2024-05-09T04:51:02.652Z,65.69
2024-05-09T04:52:08.008Z,65.84
2024-05-09T04:53:11.326Z,65.92
2024-05-09T04:54:25.743Z,66.16
2024-05-09T04:55:35.347Z,66.62
2024-05-09T04:56:37.580Z,66.66
2024-05-09T04:57:40.068Z,66.65
2024-05-09T04:58:44.886Z,66.80
2024-05-09T04:59:47.098Z,66.78
2024-05-09T05:00:49.239Z,66.69
2024-05-09T05:01:56.756Z,66.57
2024-05-09T05:02:59.319Z,66.73
2024-05-09T05:04:01.952Z,66.84
2024-05-09T05:05:04.673Z,66.79
2024-05-09T05:06:09.645Z,66.76
2024-05-09T05:07:12.761Z,66.64
2024-05-09T05:08:15.873Z,66.64
2024-05-09T05:09:18.591Z,66.40
2024-05-09T05:10:29.598Z,66.04
2024-05-09T05:11:37.698Z,66.36
2024-05-09T05:12:58.545Z,66.21
2024-05-09T05:14:00.845Z,66.21
2024-05-09T05:15:05.760Z,66.10
2024-05-09T05:16:07.958Z,66.10
2024-05-09T05:17:15.374Z,65.82
2024-05-09T05:18:18.301Z,65.81
2024-05-09T05:19:20.837Z,65.59
2024-05-09T05:20:30.663Z,65.62
2024-05-09T05:21:38.198Z,65.62
2024-05-09T05:22:43.132Z,65.66
2024-05-09T05:23:45.280Z,65.29
2024-05-09T05:24:47.453Z,65.14
2024-05-09T05:25:53.595Z,64.72
2024-05-09T05:26:56.208Z,64.67
2024-05-09T05:27:58.286Z,64.77
2024-05-09T05:29:00.539Z,65.19
2024-05-09T05:30:07.508Z,65.28
2024-05-09T05:31:11.625Z,65.70
2024-05-09T05:32:16.560Z,65.91
2024-05-09T05:33:22.392Z,66.13
2024-05-09T05:34:24.964Z,65.97
2024-05-09T05:35:27.192Z,65.93
2024-05-09T05:36:32.458Z,65.45
2024-05-09T05:37:35.438Z,65.07
2024-05-09T05:38:37.539Z,65.11
2024-05-09T05:39:42.231Z,65.09
2024-05-09T05:40:44.484Z,63.84
2024-05-09T05:41:46.640Z,62.60
2024-05-09T05:42:51.399Z,62.81
2024-05-09T05:43:53.614Z,62.17
2024-05-09T05:44:55.650Z,62.41
2024-05-09T05:45:57.902Z,62.11
2024-05-09T05:47:02.529Z,61.82
2024-05-09T05:48:08.322Z,61.46
2024-05-09T05:49:10.808Z,61.11
2024-05-09T05:50:23.701Z,60.80
2024-05-09T05:51:32.383Z,60.51
2024-05-09T05:52:34.565Z,60.57
2024-05-09T05:53:36.759Z,60.31
2024-05-09T05:54:41.926Z,60.21
2024-05-09T05:55:44.022Z,60.12
2024-05-09T05:56:46.284Z,59.45
2024-05-09T05:57:51.196Z,58.67
2024-05-09T05:58:53.349Z,58.78
2024-05-09T05:59:55.481Z,58.25
2024-05-09T06:00:57.915Z,58.18
2024-05-09T06:02:02.843Z,58.25
2024-05-09T06:03:08.610Z,57.09
2024-05-09T06:04:11.182Z,56.92
2024-05-09T06:05:13.767Z,56.92
2024-05-09T06:06:18.610Z,56.93
2024-05-09T06:07:20.803Z,56.89
2024-05-09T06:08:23.736Z,56.33
2024-05-09T06:09:26.750Z,56.56
2024-05-09T06:10:38.011Z,56.53
2024-05-09T06:11:42.841Z,56.10
2024-05-09T06:12:44.941Z,55.32
2024-05-09T06:13:47.201Z,55.79
2024-05-09T06:14:52.041Z,55.65
2024-05-09T06:15:55.180Z,55.98
2024-05-09T06:16:58.475Z,55.41
2024-05-09T06:18:03.568Z,54.72
2024-05-09T06:19:08.441Z,54.75
2024-05-09T06:20:20.158Z,54.74
2024-05-09T06:21:26.744Z,54.17
2024-05-09T06:22:31.666Z,54.45
2024-05-09T06:23:34.005Z,53.93
2024-05-09T06:24:36.126Z,53.35
2024-05-09T06:25:38.640Z,53.45
2024-05-09T06:26:44.864Z,52.78
2024-05-09T06:27:47.001Z,52.83
2024-05-09T06:28:49.165Z,53.14
2024-05-09T06:29:51.395Z,52.56
2024-05-09T06:30:56.150Z,51.76
2024-05-09T06:32:00.301Z,52.17
2024-05-09T06:33:02.912Z,51.82
2024-05-09T06:34:05.411Z,52.01
2024-05-09T06:35:12.957Z,52.36
2024-05-09T06:36:15.260Z,52.43
2024-05-09T06:37:17.466Z,52.30
2024-05-09T06:38:19.616Z,51.43
2024-05-09T06:39:24.483Z,51.43
2024-05-09T06:40:35.959Z,50.96
2024-05-09T06:41:40.840Z,50.79
2024-05-09T06:42:45.658Z,51.21
2024-05-09T06:43:47.855Z,50.71
2024-05-09T06:44:50.129Z,50.55
2024-05-09T06:45:53.683Z,50.69
2024-05-09T06:46:59.933Z,50.94
2024-05-09T06:48:02.965Z,50.17
2024-05-09T06:49:08.376Z,50.28
2024-05-09T06:50:28.196Z,50.16
2024-05-09T06:51:39.201Z,49.63
2024-05-09T06:52:41.249Z,49.59
2024-05-09T06:53:43.544Z,49.67
2024-05-09T06:54:45.616Z,49.45
2024-05-09T06:55:50.501Z,49.27
2024-05-09T06:56:52.728Z,48.72
2024-05-09T06:57:55.427Z,48.66
2024-05-09T06:58:57.660Z,48.82
2024-05-09T07:00:02.427Z,48.74
2024-05-09T07:01:05.118Z,48.27
2024-05-09T07:02:07.733Z,48.23
2024-05-09T07:03:14.954Z,48.53
2024-05-09T07:04:19.422Z,48.48
2024-05-09T07:05:24.493Z,48.11
2024-05-09T07:06:26.764Z,48.21
2024-05-09T07:07:31.568Z,47.92
2024-05-09T07:08:33.720Z,47.50
2024-05-09T07:09:36.156Z,47.23
2024-05-09T07:10:38.635Z,47.16
2024-05-09T07:11:43.555Z,46.43
2024-05-09T07:12:45.713Z,47.17
2024-05-09T07:13:47.945Z,47.36
2024-05-09T07:14:52.891Z,46.83
2024-05-09T07:15:55.024Z,47.11
2024-05-09T07:16:57.493Z,47.11
2024-05-09T07:17:59.754Z,46.92
2024-05-09T07:19:04.894Z,46.52
2024-05-09T07:20:11.679Z,46.67
2024-05-09T07:21:16.747Z,46.06
2024-05-09T07:22:19.108Z,44.82
2024-05-09T07:23:23.954Z,43.96
2024-05-09T07:24:26.280Z,44.74
2024-05-09T07:25:28.432Z,44.74
2024-05-09T07:26:30.680Z,44.91
2024-05-09T07:27:35.428Z,44.54
2024-05-09T07:28:37.623Z,44.04
2024-05-09T07:29:39.814Z,43.81
2024-05-09T07:30:44.880Z,43.54
2024-05-09T07:31:47.107Z,44.53
2024-05-09T07:32:49.428Z,44.21
2024-05-09T07:33:54.462Z,43.98
2024-05-09T07:34:56.907Z,44.46
2024-05-09T07:35:59.090Z,44.25
2024-05-09T07:37:12.670Z,43.75
2024-05-09T07:38:15.133Z,43.43
2024-05-09T07:39:17.335Z,43.33
2024-05-09T07:40:28.565Z,43.09
2024-05-09T07:41:39.807Z,43.47
2024-05-09T07:42:41.974Z,43.06
2024-05-09T07:43:44.471Z,42.75
2024-05-09T07:44:46.542Z,41.09
2024-05-09T07:45:54.302Z,42.62
2024-05-09T07:50:55.135Z,42.37
2024-05-09T07:52:23.521Z,42.12
2024-05-09T07:53:21.912Z,41.23
2024-05-09T07:54:30.557Z,42.08
2024-05-09T07:55:33.088Z,42.44
2024-05-09T07:56:38.494Z,42.69
2024-05-09T07:57:40.811Z,41.87
2024-05-09T07:58:43.680Z,41.73
2024-05-09T07:59:45.848Z,41.67
2024-05-09T08:00:50.657Z,41.98
2024-05-09T08:01:52.797Z,41.47
2024-05-09T08:02:55.095Z,38.48
2024-05-09T08:03:57.476Z,40.73
2024-05-09T08:05:02.593Z,40.75
2024-05-09T08:06:05.353Z,40.83
2024-05-09T08:07:07.760Z,40.76
2024-05-09T08:08:11.367Z,40.76
2024-05-09T08:09:21.154Z,40.34
2024-05-09T08:10:28.554Z,39.98
2024-05-09T08:11:32.939Z,40.35
2024-05-09T08:12:37.744Z,39.75
2024-05-09T08:13:39.920Z,40.29
2024-05-09T08:14:41.926Z,40.30
2024-05-09T08:15:46.723Z,40.28
2024-05-09T08:16:48.916Z,40.27
2024-05-09T08:17:51.113Z,40.57
2024-05-09T08:18:56.006Z,39.78
2024-05-09T08:19:58.254Z,39.61
2024-05-09T08:21:00.367Z,37.41
2024-05-09T08:22:07.051Z,38.92
2024-05-09T08:23:11.968Z,39.24
2024-05-09T08:24:19.135Z,39.37
2024-05-09T08:25:21.353Z,39.29
2024-05-09T08:26:26.122Z,39.08
2024-05-09T08:27:28.299Z,38.66
2024-05-09T08:28:30.545Z,38.77
2024-05-09T08:29:36.651Z,38.47
2024-05-09T08:30:38.893Z,39.08
2024-05-09T08:31:41.180Z,38.58
2024-05-09T08:32:45.867Z,38.60
2024-05-09T08:33:51.729Z,38.86
2024-05-09T08:34:54.043Z,38.69
2024-05-09T08:35:56.211Z,38.61
2024-05-09T08:37:03.710Z,38.24
2024-05-09T08:38:14.491Z,37.49
2024-05-09T08:39:19.484Z,38.75
2024-05-09T08:40:30.561Z,38.20
2024-05-09T08:41:40.892Z,37.97
2024-05-09T08:42:48.911Z,37.42
2024-05-09T08:43:51.038Z,37.66
2024-05-09T08:44:53.118Z,38.38
2024-05-09T08:45:58.342Z,38.30
2024-05-09T08:47:00.458Z,38.30
2024-05-09T08:48:05.831Z,38.42
2024-05-09T08:49:08.564Z,37.81
2024-05-09T08:50:24.317Z,37.90
2024-05-09T08:51:34.507Z,37.33
2024-05-09T08:52:37.072Z,37.39
2024-05-09T08:53:41.807Z,37.21
2024-05-09T08:54:46.534Z,38.13
2024-05-09T08:55:49.655Z,37.91
2024-05-09T08:56:51.907Z,37.74
2024-05-09T08:57:56.756Z,35.21
2024-05-09T08:59:01.390Z,36.93
2024-05-09T09:00:10.013Z,37.64
2024-05-09T09:01:17.847Z,37.63
2024-05-09T09:02:21.160Z,37.34
2024-05-09T09:03:27.958Z,37.86
2024-05-09T09:04:34.057Z,38.32
2024-05-09T09:05:38.670Z,37.99
2024-05-09T09:06:41.343Z,37.05
2024-05-09T09:07:48.294Z,34.01
2024-05-09T09:08:53.380Z,37.23
2024-05-09T09:09:58.171Z,36.24
2024-05-09T09:11:00.663Z,36.04
2024-05-09T09:12:06.709Z,37.01
2024-05-09T09:13:11.313Z,35.92
2024-05-09T09:14:13.704Z,36.63
2024-05-09T09:15:18.713Z,37.31
2024-05-09T09:16:21.098Z,36.64
2024-05-09T09:17:23.286Z,37.05
2024-05-09T09:18:26.321Z,36.85
2024-05-09T09:19:31.323Z,36.94
2024-05-09T09:20:36.607Z,36.48
2024-05-09T09:21:39.545Z,36.53
2024-05-09T09:22:44.388Z,36.88
2024-05-09T09:23:46.536Z,36.90
2024-05-09T09:24:49.079Z,36.91
2024-05-09T09:25:56.626Z,36.97
2024-05-09T09:26:58.764Z,36.55
2024-05-09T09:28:01.194Z,35.98
2024-05-09T09:29:06.041Z,36.22
2024-05-09T09:30:15.618Z,36.42
2024-05-09T09:31:25.250Z,36.26
2024-05-09T09:32:31.068Z,36.58
2024-05-09T09:33:35.715Z,36.20
2024-05-09T09:34:38.282Z,35.27
2024-05-09T09:35:41.023Z,35.57
2024-05-09T09:36:45.941Z,35.63
2024-05-09T09:37:50.963Z,36.19
2024-05-09T09:38:53.389Z,33.85
2024-05-09T09:39:55.722Z,36.17
2024-05-09T09:41:04.440Z,36.20
2024-05-09T09:42:06.842Z,36.15
2024-05-09T09:43:12.608Z,35.83
2024-05-09T09:44:19.269Z,35.86
2024-05-09T09:45:21.332Z,35.92
2024-05-09T09:46:24.527Z,35.46
2024-05-09T09:47:27.706Z,35.18
2024-05-09T09:48:34.173Z,35.07
2024-05-09T09:49:36.880Z,35.24
2024-05-09T09:50:39.255Z,35.06
2024-05-09T09:51:44.954Z,35.29
2024-05-09T09:52:47.864Z,34.80
2024-05-09T09:53:50.877Z,34.85
2024-05-09T09:54:56.754Z,34.20
2024-05-09T09:56:02.061Z,34.17
2024-05-09T09:57:05.069Z,35.06
2024-05-09T09:58:09.785Z,35.05
2024-05-09T09:59:17.091Z,35.21
2024-05-09T10:00:26.836Z,35.34
2024-05-09T10:01:34.620Z,35.34
2024-05-09T10:02:36.974Z,34.82
2024-05-09T10:03:42.266Z,32.62
2024-05-09T10:04:44.611Z,34.04
2024-05-09T10:05:47.537Z,34.30
2024-05-09T10:06:52.240Z,34.94
2024-05-09T10:07:57.751Z,34.98
2024-05-09T10:09:00.144Z,33.03
2024-05-09T10:10:02.607Z,33.36
2024-05-09T10:11:08.575Z,34.65
2024-05-09T10:12:14.452Z,35.39
2024-05-09T10:13:16.887Z,34.91
2024-05-09T10:14:21.702Z,33.75
2024-05-09T10:15:24.004Z,35.09
2024-05-09T10:16:33.691Z,32.56
2024-05-09T10:17:36.118Z,34.90
2024-05-09T10:18:38.996Z,35.66
2024-05-09T10:19:44.102Z,35.50
2024-05-09T10:20:46.828Z,35.40
2024-05-09T10:21:51.692Z,34.76
2024-05-09T10:22:54.002Z,34.87
2024-05-09T10:24:00.015Z,34.33
2024-05-09T10:25:09.707Z,34.71
2024-05-09T10:26:14.496Z,34.66
2024-05-09T10:27:16.769Z,34.64
2024-05-09T10:28:20.395Z,34.56
2024-05-09T10:29:26.431Z,34.21
2024-05-09T10:30:36.080Z,34.75
2024-05-09T10:31:41.389Z,34.52
2024-05-09T10:32:47.697Z,34.23
2024-05-09T10:33:52.226Z,34.72
2024-05-09T10:35:01.974Z,33.90
2024-05-09T10:36:04.763Z,33.88
2024-05-09T10:37:09.964Z,34.64
2024-05-09T10:38:12.868Z,34.75
2024-05-09T10:39:15.527Z,34.04
2024-05-09T10:40:25.899Z,33.88
2024-05-09T10:41:36.739Z,34.49
2024-05-09T10:42:39.773Z,34.06
2024-05-09T10:43:42.510Z,34.23
2024-05-09T10:44:44.576Z,33.82
2024-05-09T10:45:52.498Z,33.61
2024-05-09T10:46:55.280Z,33.82
2024-05-09T10:47:57.779Z,34.06
2024-05-09T10:49:03.305Z,33.48
2024-05-09T10:50:18.070Z,33.09
2024-05-09T10:51:24.829Z,33.26
2024-05-09T10:52:27.120Z,33.21
2024-05-09T10:53:29.249Z,32.98
2024-05-09T10:54:38.532Z,33.07
2024-05-09T10:55:40.932Z,32.98
2024-05-09T10:56:48.357Z,32.17
2024-05-09T10:57:50.623Z,32.64
2024-05-09T10:58:55.669Z,33.04
2024-05-09T11:00:00.038Z,32.43
2024-05-09T11:01:05.645Z,32.40
2024-05-09T11:02:10.175Z,32.64
2024-05-09T11:03:16.561Z,32.65
2024-05-09T11:04:19.087Z,32.59
2024-05-09T11:05:21.716Z,32.73
2024-05-09T11:06:24.030Z,32.73
2024-05-09T11:07:28.794Z,32.41
2024-05-09T11:08:31.891Z,32.64
2024-05-09T11:09:39.025Z,32.47
2024-05-09T11:10:42.205Z,33.01
2024-05-09T11:11:49.803Z,32.72
2024-05-09T11:12:52.374Z,32.70
2024-05-09T11:13:54.659Z,32.23
2024-05-09T11:14:56.805Z,32.46
2024-05-09T11:16:02.176Z,32.36
2024-05-09T11:17:06.419Z,32.57
2024-05-09T11:18:09.120Z,32.79
2024-05-09T11:19:15.826Z,32.37
2024-05-09T11:20:26.439Z,32.44
2024-05-09T11:21:31.895Z,32.88
2024-05-09T11:22:34.204Z,31.15
2024-05-09T11:23:38.851Z,32.33
2024-05-09T11:24:41.270Z,32.35
2024-05-09T11:25:48.728Z,32.25
2024-05-09T11:26:53.509Z,32.43
2024-05-09T11:28:01.534Z,32.59
2024-05-09T11:29:03.811Z,32.69
2024-05-09T11:30:24.336Z,31.47
2024-05-09T11:31:37.278Z,33.08
2024-05-09T11:32:39.419Z,33.23
2024-05-09T11:33:44.688Z,33.43
2024-05-09T11:34:49.565Z,33.17
2024-05-09T11:35:51.950Z,33.05
2024-05-09T11:36:54.225Z,33.45
2024-05-09T11:37:56.516Z,33.22
2024-05-09T11:39:01.366Z,33.18
2024-05-09T11:40:06.802Z,33.08
2024-05-09T11:41:09.379Z,33.12
2024-05-09T11:42:14.358Z,33.34
2024-05-09T11:43:16.807Z,33.29
2024-05-09T11:44:21.692Z,32.99
2024-05-09T11:45:23.882Z,33.25
2024-05-09T11:46:26.129Z,33.06
2024-05-09T11:47:31.013Z,32.85
2024-05-09T11:48:33.357Z,32.74
2024-05-09T11:49:36.127Z,32.92
2024-05-09T11:50:39.154Z,32.80
2024-05-09T11:51:44.105Z,32.78
2024-05-09T11:52:46.174Z,32.54
2024-05-09T11:53:48.389Z,33.04
2024-05-09T11:54:53.308Z,31.97
2024-05-09T11:55:55.508Z,31.19
2024-05-09T11:56:57.922Z,32.91
2024-05-09T11:58:05.455Z,33.11
2024-05-09T11:59:10.109Z,33.65
2024-05-09T12:00:18.236Z,33.33
2024-05-09T12:01:28.015Z,33.68
2024-05-09T12:02:30.877Z,33.45
2024-05-09T12:03:37.972Z,33.09
2024-05-09T12:04:40.372Z,32.71
2024-05-09T12:05:42.791Z,32.60
2024-05-09T12:06:46.430Z,32.42
2024-05-09T12:07:51.261Z,32.74
2024-05-09T12:08:53.676Z,33.25
2024-05-09T12:09:55.920Z,31.84
2024-05-09T12:10:58.829Z,32.55
2024-05-09T12:12:03.568Z,32.61
2024-05-09T12:13:08.565Z,32.82
2024-05-09T12:14:10.671Z,32.38
2024-05-09T12:15:15.571Z,33.06
2024-05-09T12:16:17.992Z,32.15
2024-05-09T12:17:20.456Z,29.69
2024-05-09T12:18:22.851Z,32.16
2024-05-09T12:19:27.829Z,32.94
2024-05-09T12:20:36.455Z,32.97
2024-05-09T12:21:41.363Z,32.34
2024-05-09T12:22:47.557Z,31.55
2024-05-09T12:23:49.754Z,32.03
2024-05-09T12:24:51.969Z,30.39
2024-05-09T12:25:54.144Z,32.21
2024-05-09T12:26:58.995Z,32.53
2024-05-09T12:28:01.449Z,32.67
2024-05-09T12:29:07.128Z,32.39
2024-05-09T12:30:20.626Z,29.66
2024-05-09T12:31:27.529Z,32.28
2024-05-09T12:32:29.822Z,32.39
2024-05-09T12:33:34.736Z,32.28
2024-05-09T12:34:38.199Z,31.25
2024-05-09T12:35:40.506Z,30.89
2024-05-09T12:36:42.765Z,31.28
2024-05-09T12:37:47.570Z,31.44
2024-05-09T12:38:50.140Z,31.78
2024-05-09T12:39:52.324Z,31.43
2024-05-09T12:40:54.613Z,31.92
2024-05-09T12:41:59.806Z,31.79
2024-05-09T12:43:01.823Z,32.05
2024-05-09T12:44:06.484Z,31.83
2024-05-09T12:45:09.011Z,31.54
2024-05-09T12:46:13.946Z,30.89
2024-05-09T12:47:16.225Z,30.13
2024-05-09T12:48:18.442Z,31.03
2024-05-09T12:49:21.973Z,31.11
2024-05-09T12:50:32.429Z,30.96
2024-05-09T12:51:36.404Z,31.28
2024-05-09T12:52:38.500Z,31.58
2024-05-09T12:53:43.137Z,31.67
2024-05-09T12:54:45.302Z,31.87
2024-05-09T12:55:53.810Z,31.93
2024-05-09T12:56:59.547Z,31.88
2024-05-09T12:58:04.389Z,31.92
2024-05-09T12:59:09.182Z,31.82
2024-05-09T13:00:20.669Z,32.04
2024-05-09T13:01:32.511Z,32.01
2024-05-09T13:02:35.158Z,31.72
2024-05-09T13:03:37.457Z,31.63
2024-05-09T13:04:42.429Z,31.53
2024-05-09T13:05:45.666Z,32.25
2024-05-09T13:06:49.384Z,32.48
2024-05-09T13:07:54.488Z,32.39
2024-05-09T13:08:56.542Z,32.16
2024-05-09T13:09:58.775Z,31.98
2024-05-09T13:11:01.220Z,32.09
2024-05-09T13:12:06.112Z,31.92
2024-05-09T13:13:09.336Z,31.60
2024-05-09T13:14:14.271Z,31.44
2024-05-09T13:15:18.945Z,31.70
2024-05-09T13:16:21.375Z,31.65
2024-05-09T13:17:23.932Z,31.52
2024-05-09T13:18:26.098Z,31.85
2024-05-09T13:19:30.911Z,31.53
2024-05-09T13:20:35.444Z,31.32
2024-05-09T13:21:38.277Z,31.42
2024-05-09T13:22:40.583Z,31.05
2024-05-09T13:23:45.646Z,31.41
2024-05-09T13:24:47.915Z,30.91
2024-05-09T13:25:50.026Z,31.22
2024-05-09T13:26:54.920Z,30.22
2024-05-09T13:27:57.434Z,30.72
2024-05-09T13:28:59.664Z,30.77
2024-05-09T13:30:07.799Z,30.63
2024-05-09T13:31:16.484Z,30.94
2024-05-09T13:32:18.824Z,30.64
2024-05-09T13:33:21.081Z,31.34
2024-05-09T13:34:23.324Z,31.33
2024-05-09T13:35:28.060Z,31.19
2024-05-09T13:36:30.241Z,31.07
2024-05-09T13:37:33.164Z,30.91
2024-05-09T13:38:35.359Z,30.93
2024-05-09T13:39:40.128Z,30.56
2024-05-09T13:40:42.522Z,29.80
2024-05-09T13:41:44.758Z,29.79
2024-05-09T13:42:48.669Z,30.23
2024-05-09T13:43:53.700Z,30.36
2024-05-09T13:44:55.898Z,30.29
2024-05-09T13:46:00.899Z,30.65
2024-05-09T13:47:03.248Z,30.96
2024-05-09T13:48:09.900Z,30.80
2024-05-09T13:49:16.905Z,30.47
2024-05-09T13:50:28.096Z,30.82
2024-05-09T13:51:38.598Z,30.84
2024-05-09T13:52:40.731Z,31.03
2024-05-09T13:53:42.929Z,30.82